| time (UTC) | temp F | wind direction | speed MPH | gust MPH | rain 1hr in | rain 24hr in | rain mn in | humidity % | barometer mb |
| 20260904134512 | 67 | 355 | 3.0 | 9.0 | 0.00 | 0.08 | 0.08 | 61 | 1014.2 |
| 20260904133012 | 66 | 248 | 4.0 | 10.0 | 0.01 | 0.08 | 0.08 | 62 | 1014.0 |
| 20260904131512 | 66 | 233 | 2.0 | 9.0 | 0.01 | 0.08 | 0.08 | 66 | 1013.9 |
| 20260904130011 | 66 | 263 | 3.0 | 9.0 | 0.02 | 0.08 | 0.08 | 68 | 1013.7 |
| 20260904124512 | 65 | 245 | 3.0 | 13.0 | 0.02 | 0.08 | 0.08 | 68 | 1013.5 |
| 20260904123010 | 65 | 270 | 2.0 | 12.0 | 0.02 | 0.07 | 0.07 | 68 | 1013.7 |
| 20260904121508 | 65 | 356 | 3.0 | 17.0 | 0.07 | 0.07 | 0.07 | 68 | 1013.7 |
| 20260904120008 | 65 | 311 | 4.0 | 11.0 | 0.06 | 0.06 | 0.06 | 66 | 1013.6 |
| 20260904114504 | 65 | 278 | 5.0 | 14.0 | 0.06 | 0.06 | 0.06 | 65 | 1013.5 |
| 20260904113004 | 66 | 199 | 6.0 | 16.0 | 0.05 | 0.05 | 0.05 | 63 | 1013.1 |
| 20260904111559 | 70 | 264 | 5.0 | 26.0 | 0.00 | 0.00 | 0.00 | 60 | 1013.0 |
| 20260904110108 | 71 | 271 | 10.0 | 26.0 | 0.00 | 0.00 | 0.00 | 57 | 1012.5 |
| 20260904104602 | 72 | 271 | 11.0 | 28.0 | 0.00 | 0.00 | 0.00 | 55 | 1012.6 |
| 20260904103056 | 72 | 250 | 11.0 | 29.0 | 0.00 | 0.00 | 0.00 | 56 | 1012.6 |
| 20260904101606 | 72 | 226 | 10.0 | 24.0 | 0.00 | 0.00 | 0.00 | 56 | 1012.6 |
| 20260904100053 | 71 | 330 | 10.0 | 27.0 | 0.00 | 0.00 | 0.00 | 56 | 1012.7 |
| 20260904094552 | 70 | 248 | 8.0 | 20.0 | 0.00 | 0.00 | 0.00 | 59 | 1012.5 |
| 20260904093109 | 70 | 253 | 10.0 | 23.0 | 0.00 | 0.00 | 0.00 | 60 | 1012.7 |
| 20260904091547 | 70 | 254 | 11.0 | 27.0 | 0.00 | 0.00 | 0.00 | 59 | 1012.6 |
| 20260904090051 | 70 | 243 | 10.0 | 24.0 | 0.00 | 0.00 | 0.00 | 58 | 1012.4 |
| 20260904084547 | 71 | 250 | 10.0 | 26.0 | 0.00 | 0.00 | 0.00 | 57 | 1012.3 |
| 20260904083044 | 70 | 272 | 7.0 | 25.0 | 0.00 | 0.00 | 0.00 | 58 | 1011.8 |
| 20260904081542 | 70 | 238 | 7.0 | 18.0 | 0.00 | 0.00 | 0.00 | 59 | 1011.8 |
| 20260904080042 | 70 | 255 | 7.0 | 17.0 | 0.00 | 0.00 | 0.00 | 60 | 1011.7 |
| 20260904074540 | 69 | 288 | 9.0 | 19.0 | 0.00 | 0.02 | 0.00 | 60 | 1012.1 |
| 20260904073039 | 69 | 257 | 8.0 | 20.0 | 0.00 | 0.02 | 0.00 | 61 | 1012.4 |
| 20260904071533 | 69 | 230 | 7.0 | 20.0 | 0.00 | 0.02 | 0.00 | 61 | 1012.8 |
| 20260904070044 | 69 | 212 | 5.0 | 12.0 | 0.00 | 0.02 | 0.00 | 61 | 1012.8 |
| 20260904064538 | 69 | 264 | 5.0 | 19.0 | 0.00 | 0.02 | 0.00 | 62 | 1012.7 |
| 20260904063030 | 68 | 243 | 4.0 | 12.0 | 0.00 | 0.02 | 0.00 | 63 | 1012.7 |
| 20260904061540 | 68 | 229 | 3.0 | 13.0 | 0.00 | 0.02 | 0.00 | 63 | 1012.6 |
| 20260904060030 | 68 | 245 | 4.0 | 13.0 | 0.00 | 0.02 | 0.00 | 63 | 1012.7 |
| 20260904054532 | 68 | 226 | 4.0 | 13.0 | 0.00 | 0.02 | 0.00 | 63 | 1013.0 |
| 20260904053025 | 68 | 207 | 7.0 | 18.0 | 0.00 | 0.02 | 0.00 | 61 | 1012.9 |
| 20260904051526 | 68 | 333 | 5.0 | 17.0 | 0.00 | 0.02 | 0.00 | 61 | 1013.1 |
| 20260904050022 | 68 | 248 | 3.0 | 9.0 | 0.00 | 0.02 | 0.00 | 62 | 1013.5 |
| 20260904044529 | 68 | 258 | 4.0 | 14.0 | 0.00 | 0.02 | 0.00 | 63 | 1013.7 |
| 20260904043019 | 68 | 257 | 3.0 | 12.0 | 0.00 | 0.02 | 0.00 | 63 | 1013.9 |
| 20260904041516 | 68 | 179 | 3.0 | 8.0 | 0.00 | 0.02 | 0.00 | 63 | 1014.0 |
| 20260904040017 | 68 | 204 | 4.0 | 14.0 | 0.00 | 0.02 | 0.00 | 63 | 1014.1 |
| 20260904034536 | 67 | 269 | 5.0 | 12.0 | 0.00 | 0.03 | 0.00 | 64 | 1014.1 |
| 20260904033015 | 67 | 221 | 3.0 | 14.0 | 0.00 | 0.03 | 0.00 | 64 | 1014.0 |
| 20260904031515 | 67 | 158 | 3.0 | 11.0 | 0.00 | 0.03 | 0.00 | 63 | 1014.3 |
| 20260904030010 | 67 | 168 | 2.0 | 9.0 | 0.00 | 0.03 | 0.00 | 63 | 1014.5 |
| 20260904024509 | 67 | 303 | 5.0 | 10.0 | 0.00 | 0.03 | 0.00 | 63 | 1014.8 |
| 20260904023008 | 67 | 204 | 5.0 | 15.0 | 0.00 | 0.03 | 0.00 | 63 | 1014.7 |
| 20260904021506 | 67 | 294 | 5.0 | 13.0 | 0.00 | 0.03 | 0.00 | 63 | 1014.9 |
| 20260904020005 | 67 | 236 | 3.0 | 7.0 | 0.00 | 0.03 | 0.00 | 63 | 1015.0 |
| 20260904014503 | 67 | 240 | 4.0 | 14.0 | 0.00 | 0.03 | 0.00 | 63 | 1015.1 |
| 20260904013001 | 67 | 240 | 2.0 | 9.0 | 0.00 | 0.03 | 0.00 | 62 | 1015.4 |
| 20260904011611 | 67 | 249 | 3.0 | 9.0 | 0.00 | 0.03 | 0.00 | 62 | 1015.4 |
| 20260904010108 | 68 | 291 | 4.0 | 12.0 | 0.00 | 0.03 | 0.00 | 61 | 1015.5 |
| 20260904004557 | 68 | 238 | 4.0 | 15.0 | 0.00 | 0.03 | 0.00 | 61 | 1015.6 |
| 20260904003053 | 68 | 266 | 9.0 | 23.0 | 0.00 | 0.03 | 0.00 | 61 | 1015.9 |
| 20260904001551 | 68 | 271 | 5.0 | 18.0 | 0.00 | 0.03 | 0.00 | 62 | 1016.1 |
| 20260904000056 | 69 | 278 | 5.0 | 17.0 | 0.00 | 0.03 | 0.00 | 61 | 1016.2 |
| 20260903234548 | 69 | 247 | 6.0 | 16.0 | 0.00 | 0.03 | 0.00 | 61 | 1016.3 |
| 20260903233046 | 68 | 259 | 5.0 | 12.0 | 0.00 | 0.03 | 0.00 | 62 | 1016.4 |
| 20260903231547 | 68 | 250 | 6.0 | 13.0 | 0.00 | 0.03 | 0.00 | 62 | 1016.3 |
| 20260903230046 | 68 | 227 | 3.0 | 17.0 | 0.00 | 0.03 | 0.00 | 63 | 1016.5 |
| 20260903224543 | 68 | 311 | 6.0 | 15.0 | 0.00 | 0.03 | 0.00 | 63 | 1016.7 |
| 20260903223037 | 69 | 286 | 5.0 | 12.0 | 0.00 | 0.03 | 0.00 | 63 | 1016.8 |
| 20260903221534 | 69 | 215 | 5.0 | 15.0 | 0.00 | 0.03 | 0.00 | 62 | 1016.9 |
| 20260903220032 | 69 | 259 | 4.0 | 12.0 | 0.00 | 0.03 | 0.00 | 62 | 1017.0 |
| 20260903214535 | 69 | 198 | 6.0 | 15.0 | 0.00 | 0.03 | 0.03 | 62 | 1017.0 |
| 20260903213034 | 69 | 213 | 5.0 | 15.0 | 0.00 | 0.03 | 0.03 | 62 | 1016.9 |
| 20260903211530 | 69 | 244 | 5.0 | 15.0 | 0.00 | 0.03 | 0.03 | 62 | 1017.0 |
| 20260903210029 | 69 | 298 | 9.0 | 18.0 | 0.00 | 0.03 | 0.03 | 62 | 1017.1 |
| 20260903204529 | 69 | 274 | 6.0 | 15.0 | 0.00 | 0.03 | 0.03 | 61 | 1017.2 |
| 20260903203041 | 69 | 238 | 4.0 | 13.0 | 0.00 | 0.03 | 0.03 | 61 | 1017.5 |
| 20260903201535 | 69 | 212 | 5.0 | 13.0 | 0.00 | 0.03 | 0.03 | 61 | 1017.6 |
| 20260903200028 | 69 | 240 | 4.0 | 11.0 | 0.00 | 0.03 | 0.03 | 61 | 1017.6 |
| 20260903194527 | 69 | 216 | 3.0 | 10.0 | 0.00 | 0.03 | 0.03 | 61 | 1017.7 |
| 20260903193035 | 69 | 280 | 3.0 | 14.0 | 0.00 | 0.03 | 0.03 | 61 | 1017.6 |
| 20260903191527 | 69 | 302 | 3.0 | 12.0 | 0.00 | 0.03 | 0.03 | 62 | 1017.7 |
| 20260903190026 | 69 | 291 | 4.0 | 11.0 | 0.00 | 0.03 | 0.03 | 62 | 1017.8 |
| 20260903184525 | 69 | 228 | 4.0 | 11.0 | 0.00 | 0.03 | 0.03 | 62 | 1017.6 |
| 20260903183025 | 69 | 274 | 4.0 | 13.0 | 0.00 | 0.03 | 0.03 | 61 | 1017.7 |
| 20260903181523 | 70 | 247 | 4.0 | 9.0 | 0.00 | 0.03 | 0.03 | 61 | 1017.7 |
| 20260903180025 | 70 | 255 | 4.0 | 10.0 | 0.00 | 0.03 | 0.03 | 61 | 1017.7 |
| 20260903174525 | 70 | 236 | 2.0 | 12.0 | 0.00 | 0.03 | 0.03 | 61 | 1017.8 |
| 20260903173022 | 70 | 263 | 5.0 | 13.0 | 0.00 | 0.03 | 0.03 | 60 | 1017.8 |
| 20260903171522 | 70 | 144 | 5.0 | 16.0 | 0.00 | 0.03 | 0.03 | 61 | 1017.7 |
| 20260903170021 | 71 | 219 | 4.0 | 10.0 | 0.00 | 0.03 | 0.03 | 60 | 1017.8 |
| 20260903164520 | 72 | 228 | 4.0 | 10.0 | 0.00 | 0.03 | 0.03 | 58 | 1017.7 |
| 20260903163019 | 72 | 268 | 5.0 | 13.0 | 0.00 | 0.03 | 0.03 | 59 | 1017.7 |
| 20260903161517 | 72 | 237 | 7.0 | 18.0 | 0.00 | 0.03 | 0.03 | 58 | 1017.9 |
| 20260903160028 | 73 | 252 | 5.0 | 13.0 | 0.00 | 0.03 | 0.03 | 57 | 1018.0 |
| 20260903154522 | 73 | 259 | 6.0 | 15.0 | 0.00 | 0.03 | 0.03 | 56 | 1018.0 |
| 20260903153015 | 74 | 255 | 7.0 | 18.0 | 0.00 | 0.03 | 0.03 | 55 | 1018.0 |
| 20260903151514 | 73 | 233 | 6.0 | 13.0 | 0.00 | 0.03 | 0.03 | 55 | 1017.9 |
| 20260903150018 | 71 | 278 | 7.0 | 16.0 | 0.00 | 0.03 | 0.03 | 58 | 1017.8 |
| 20260903144535 | 72 | 316 | 7.0 | 18.0 | 0.00 | 0.03 | 0.03 | 56 | 1018.4 |
| 20260903143010 | 72 | 353 | 6.0 | 16.0 | 0.00 | 0.03 | 0.03 | 57 | 1018.4 |
| 20260903141508 | 72 | 273 | 9.0 | 17.0 | 0.00 | 0.03 | 0.03 | 56 | 1018.5 |
| 20260903140007 | 71 | 293 | 8.0 | 19.0 | 0.00 | 0.03 | 0.03 | 57 | 1018.4 |